createdAt,value
2022-11-27T00:00:16.746Z,2.10
2022-11-27T00:02:46.125Z,2.15
2022-11-27T00:05:14.069Z,2.08
2022-11-27T00:07:42.123Z,2.02
2022-11-27T00:10:11.020Z,1.72
2022-11-27T00:12:38.972Z,1.76
2022-11-27T00:15:07.332Z,1.72
2022-11-27T00:17:35.248Z,1.73
2022-11-27T00:20:05.021Z,1.84
2022-11-27T00:22:32.920Z,1.88
2022-11-27T00:25:00.822Z,1.94
2022-11-27T00:27:28.767Z,1.97
2022-11-27T00:29:56.663Z,2.10
2022-11-27T00:32:24.565Z,2.08
2022-11-27T00:34:52.521Z,2.08
2022-11-27T00:37:21.801Z,1.86
2022-11-27T00:39:49.682Z,2.10
2022-11-27T00:42:17.602Z,1.91
2022-11-27T00:44:45.488Z,1.85
2022-11-27T00:47:13.437Z,1.62
2022-11-27T00:49:41.389Z,1.44
2022-11-27T00:52:09.289Z,1.35
2022-11-27T00:54:38.930Z,1.71
2022-11-27T00:57:07.151Z,1.36
2022-11-27T00:59:35.129Z,1.27
2022-11-27T01:02:03.090Z,1.26
2022-11-27T01:04:31.154Z,1.30
2022-11-27T01:06:59.071Z,1.27
2022-11-27T01:09:26.974Z,1.12
2022-11-27T01:11:56.260Z,1.10
2022-11-27T01:14:24.157Z,1.11
2022-11-27T01:16:52.061Z,1.28
2022-11-27T01:19:20.298Z,1.31
2022-11-27T01:21:48.515Z,1.17
2022-11-27T01:24:17.266Z,0.98
2022-11-27T01:26:46.002Z,0.89
2022-11-27T01:29:15.345Z,0.89
2022-11-27T01:31:43.310Z,0.99
2022-11-27T01:34:15.865Z,0.94
2022-11-27T01:36:43.997Z,0.64
2022-11-27T01:39:16.722Z,0.51
2022-11-27T01:41:44.960Z,0.49
2022-11-27T01:44:48.219Z,0.55
2022-11-27T01:47:22.063Z,0.56
2022-11-27T01:49:52.067Z,0.84
2022-11-27T01:52:21.570Z,0.78
2022-11-27T01:54:51.785Z,0.42
2022-11-27T01:57:23.799Z,0.36
2022-11-27T01:59:54.712Z,0.35
2022-11-27T02:02:22.718Z,0.22
2022-11-27T02:04:50.902Z,0.30
2022-11-27T02:07:18.878Z,0.10
2022-11-27T02:09:46.872Z,0.03
2022-11-27T02:12:24.877Z,-0.01
2022-11-27T02:15:02.061Z,-0.04
2022-11-27T02:17:35.096Z,-0.07
2022-11-27T02:20:24.207Z,-0.10
2022-11-27T02:23:13.304Z,-0.10
2022-11-27T02:25:51.528Z,-0.05
2022-11-27T02:28:28.192Z,0.04
2022-11-27T02:31:01.980Z,0.07
2022-11-27T02:33:30.676Z,0.30
2022-11-27T02:36:03.440Z,0.09
2022-11-27T02:38:33.751Z,0.09
2022-11-27T02:41:06.886Z,-0.05
2022-11-27T02:43:37.543Z,-0.06
2022-11-27T02:46:09.007Z,-0.02
2022-11-27T02:48:39.596Z,-0.19
2022-11-27T02:51:08.355Z,-0.17
2022-11-27T02:53:39.663Z,-0.18
2022-11-27T02:56:09.934Z,-0.21
2022-11-27T02:58:38.722Z,-0.18
2022-11-27T03:01:08.263Z,-0.10
2022-11-27T03:03:39.635Z,-0.09
2022-11-27T03:06:09.486Z,-0.15
2022-11-27T03:08:40.275Z,-0.07
2022-11-27T03:11:11.396Z,-0.06
2022-11-27T03:13:41.776Z,-0.23
2022-11-27T03:16:14.339Z,-0.19
2022-11-27T03:18:45.277Z,-0.32
2022-11-27T03:21:22.726Z,-0.43
2022-11-27T03:23:50.720Z,-0.46
2022-11-27T03:26:18.662Z,-0.40
2022-11-27T03:28:47.290Z,-0.31
2022-11-27T03:31:16.609Z,-0.20
2022-11-27T03:33:44.596Z,-0.41
2022-11-27T03:36:14.967Z,-0.52
2022-11-27T03:38:43.868Z,-0.68
2022-11-27T03:41:17.137Z,-0.49
2022-11-27T03:43:50.938Z,-0.59
2022-11-27T03:46:27.303Z,-0.59
2022-11-27T03:49:00.530Z,-0.67
2022-11-27T03:51:32.861Z,-0.93
2022-11-27T03:54:05.220Z,-1.01
2022-11-27T03:56:37.473Z,-1.18
2022-11-27T03:59:09.166Z,-1.27
2022-11-27T04:01:38.514Z,-1.20
2022-11-27T04:04:07.360Z,-1.22
2022-11-27T04:06:35.313Z,-1.13
2022-11-27T04:09:03.301Z,-1.24
2022-11-27T04:11:31.192Z,-1.21
2022-11-27T04:13:59.129Z,-1.20
2022-11-27T04:16:27.172Z,-1.28
2022-11-27T04:18:56.486Z,-1.29
2022-11-27T04:21:24.433Z,-1.34
2022-11-27T04:23:52.329Z,-1.41
2022-11-27T04:26:20.238Z,-1.42
2022-11-27T04:28:48.108Z,-1.31
2022-11-27T04:31:16.088Z,-1.45
2022-11-27T04:33:44.004Z,-1.29
2022-11-27T04:36:13.273Z,-1.14
2022-11-27T04:38:41.175Z,-1.29
2022-11-27T04:41:09.075Z,-1.28
2022-11-27T04:43:36.958Z,-1.29
2022-11-27T04:46:05.003Z,-1.35
2022-11-27T04:48:32.879Z,-1.28
2022-11-27T04:51:00.779Z,-1.34
2022-11-27T04:53:30.122Z,-1.32
2022-11-27T04:55:58.045Z,-1.36
2022-11-27T04:58:26.045Z,-1.52
2022-11-27T05:00:53.970Z,-1.61
2022-11-27T05:03:21.923Z,-1.59
2022-11-27T05:05:56.203Z,-1.21
2022-11-27T05:08:24.143Z,-1.32
2022-11-27T05:11:01.772Z,-1.33
2022-11-27T05:13:29.676Z,-1.43
2022-11-27T05:15:57.711Z,-1.61
2022-11-27T05:18:25.815Z,-1.66
2022-11-27T05:20:58.548Z,-1.65
2022-11-27T05:23:26.600Z,-1.78
2022-11-27T05:25:54.853Z,-1.72
2022-11-27T05:28:26.862Z,-1.75
2022-11-27T05:30:55.132Z,-1.83
2022-11-27T05:33:23.103Z,-1.86
2022-11-27T05:35:51.011Z,-1.75
2022-11-27T05:38:18.900Z,-1.76
2022-11-27T05:40:46.798Z,-1.83
2022-11-27T05:43:14.686Z,-1.85
2022-11-27T05:45:43.963Z,-1.84
2022-11-27T05:48:11.859Z,-1.71
2022-11-27T05:50:39.871Z,-1.77
2022-11-27T05:53:07.863Z,-1.74
2022-11-27T05:55:35.819Z,-1.70
2022-11-27T05:58:03.894Z,-1.60
2022-11-27T06:00:31.932Z,-1.68
2022-11-27T06:03:01.417Z,-1.73
2022-11-27T06:05:29.454Z,-1.77
2022-11-27T06:07:57.471Z,-1.76
2022-11-27T06:10:25.512Z,-1.81
2022-11-27T06:12:53.415Z,-1.85
2022-11-27T06:15:21.344Z,-1.71
2022-11-27T06:17:49.976Z,-1.68
2022-11-27T06:20:20.322Z,-1.79
2022-11-27T06:22:48.250Z,-1.82
2022-11-27T06:25:16.360Z,-1.95
2022-11-27T06:27:44.262Z,-1.97
2022-11-27T06:30:13.296Z,-1.90
2022-11-27T06:32:41.208Z,-1.85
2022-11-27T06:35:10.153Z,-1.95
2022-11-27T06:37:39.465Z,-1.90
2022-11-27T06:40:08.856Z,-1.84
2022-11-27T06:42:36.759Z,-1.95
2022-11-27T06:45:05.259Z,-1.98
2022-11-27T06:47:33.168Z,-2.07
2022-11-27T06:50:01.086Z,-1.97
2022-11-27T06:52:31.388Z,-1.89
2022-11-27T06:55:02.926Z,-1.98
2022-11-27T06:57:30.893Z,-1.72
2022-11-27T06:59:58.818Z,-1.53
2022-11-27T07:02:26.811Z,-1.76
2022-11-27T07:04:54.754Z,-1.78
2022-11-27T07:07:22.699Z,-1.86
2022-11-27T07:09:50.658Z,-1.89
2022-11-27T07:12:19.941Z,-1.94
2022-11-27T07:14:47.834Z,-1.95
2022-11-27T07:17:15.740Z,-1.95
2022-11-27T07:19:43.663Z,-1.70
2022-11-27T07:22:11.769Z,-1.39
2022-11-27T07:24:39.987Z,-1.36
2022-11-27T07:27:08.667Z,-1.46
2022-11-27T07:29:38.017Z,-1.25
2022-11-27T07:32:06.231Z,-1.39
2022-11-27T07:34:34.197Z,-1.48
2022-11-27T07:37:02.144Z,-1.03
2022-11-27T07:40:00.311Z,-1.08
2022-11-27T07:45:08.395Z,-0.56
2022-11-27T07:47:36.358Z,-0.39
2022-11-27T07:50:05.607Z,-0.36
2022-11-27T07:52:36.761Z,-0.20
2022-11-27T07:55:09.598Z,-0.19
2022-11-27T07:57:37.517Z,-0.09
2022-11-27T08:00:08.058Z,0.07
2022-11-27T08:02:36.005Z,-0.01
2022-11-27T08:05:08.105Z,0.16
2022-11-27T08:07:39.066Z,0.56
2022-11-27T08:10:08.360Z,0.70
2022-11-27T08:12:36.287Z,0.81
2022-11-27T08:15:05.778Z,0.92
2022-11-27T08:17:35.038Z,0.89
2022-11-27T08:20:03.116Z,1.09
2022-11-27T08:22:31.038Z,1.14
2022-11-27T08:24:58.933Z,1.06
2022-11-27T08:27:26.813Z,1.29
2022-11-27T08:29:54.768Z,1.46
2022-11-27T08:32:22.647Z,1.58
2022-11-27T08:34:52.042Z,1.80
2022-11-27T08:37:19.924Z,1.87
2022-11-27T08:39:47.827Z,1.97
2022-11-27T08:42:15.717Z,2.24
2022-11-27T08:44:43.806Z,2.27
2022-11-27T08:47:11.835Z,2.52
2022-11-27T08:49:43.615Z,2.63
2022-11-27T08:52:15.294Z,2.60
2022-11-27T08:54:43.303Z,2.68
2022-11-27T08:57:11.375Z,2.83
2022-11-27T08:59:39.243Z,2.92
2022-11-27T09:02:07.496Z,3.01
2022-11-27T09:04:35.461Z,2.96
2022-11-27T09:07:03.412Z,3.09
2022-11-27T09:09:32.697Z,3.24
2022-11-27T09:12:01.084Z,3.28
2022-11-27T09:14:28.993Z,3.27
2022-11-27T09:16:56.981Z,3.46
2022-11-27T09:19:26.006Z,3.24
2022-11-27T09:21:53.979Z,2.97
2022-11-27T09:24:21.889Z,3.31
2022-11-27T09:26:51.166Z,3.03
2022-11-27T09:29:19.125Z,3.31
2022-11-27T09:31:47.092Z,3.51
2022-11-27T09:34:15.080Z,4.02
2022-11-27T09:36:43.044Z,4.19
2022-11-27T09:39:10.968Z,4.24
2022-11-27T09:41:46.990Z,3.80
2022-11-27T09:44:24.921Z,3.75
2022-11-27T09:46:54.392Z,3.92
2022-11-27T09:49:26.422Z,3.79
2022-11-27T09:51:57.677Z,3.77
2022-11-27T09:54:28.611Z,3.78
2022-11-27T09:56:57.410Z,3.86
2022-11-27T09:59:31.453Z,3.93
2022-11-27T10:01:59.428Z,3.88
2022-11-27T10:04:30.439Z,4.06
2022-11-27T10:07:16.723Z,4.22
2022-11-27T10:09:57.437Z,4.45
2022-11-27T10:12:32.167Z,4.60
2022-11-27T10:15:07.140Z,4.89
2022-11-27T10:17:39.360Z,4.90
2022-11-27T10:20:16.672Z,5.04
2022-11-27T10:22:53.017Z,5.33
2022-11-27T10:25:22.429Z,5.46
2022-11-27T10:28:04.349Z,5.10
2022-11-27T10:30:34.442Z,4.89
2022-11-27T10:33:03.123Z,5.05
2022-11-27T10:35:32.751Z,4.95
2022-11-27T10:38:07.560Z,5.04
2022-11-27T10:40:39.688Z,5.38
2022-11-27T10:43:12.028Z,5.51
2022-11-27T10:45:45.438Z,5.59
2022-11-27T10:48:13.931Z,5.66
2022-11-27T10:50:42.650Z,5.62
2022-11-27T10:53:12.941Z,5.86
2022-11-27T10:56:01.322Z,6.08
2022-11-27T10:58:34.316Z,6.40
2022-11-27T11:01:05.338Z,6.41
2022-11-27T11:03:33.417Z,6.63
2022-11-27T11:06:20.008Z,6.51
2022-11-27T11:08:50.354Z,6.24
2022-11-27T11:11:26.600Z,6.45
2022-11-27T11:13:55.806Z,6.53
2022-11-27T11:16:33.377Z,6.66
2022-11-27T11:19:03.056Z,6.67
2022-11-27T11:21:33.276Z,6.77
2022-11-27T11:24:03.105Z,6.68
2022-11-27T11:26:32.711Z,7.01
2022-11-27T11:29:01.949Z,7.12
2022-11-27T11:31:34.400Z,6.79
2022-11-27T11:34:04.529Z,6.68
2022-11-27T11:36:32.636Z,6.78
2022-11-27T11:39:00.837Z,6.88
2022-11-27T11:41:38.077Z,6.97
2022-11-27T11:44:06.379Z,6.88
2022-11-27T11:46:38.609Z,6.93
2022-11-27T11:49:08.425Z,6.99
2022-11-27T11:52:00.118Z,7.40
2022-11-27T11:54:36.556Z,7.86
2022-11-27T11:57:07.564Z,7.64
2022-11-27T11:59:42.101Z,7.80
2022-11-27T12:02:30.996Z,7.87
2022-11-27T12:05:11.564Z,8.04
2022-11-27T12:07:53.658Z,7.92
2022-11-27T12:10:24.360Z,8.14
2022-11-27T12:12:58.443Z,8.27
2022-11-27T12:15:31.032Z,8.03
2022-11-27T12:18:02.790Z,7.92
2022-11-27T12:20:39.136Z,8.15
2022-11-27T12:23:42.538Z,8.12
2022-11-27T12:26:17.688Z,8.23
2022-11-27T12:29:23.308Z,8.38
2022-11-27T12:32:02.493Z,7.61
2022-11-27T12:34:41.420Z,7.45
2022-11-27T12:37:19.702Z,7.63
2022-11-27T12:39:59.330Z,7.17
2022-11-27T12:42:29.951Z,6.92
2022-11-27T12:45:02.316Z,6.59
2022-11-27T12:47:38.939Z,6.20
2022-11-27T12:50:17.690Z,5.98
2022-11-27T12:52:49.220Z,5.76
2022-11-27T12:55:21.051Z,5.64
2022-11-27T12:57:51.872Z,5.51
2022-11-27T13:00:21.746Z,5.40
2022-11-27T13:02:58.045Z,5.30
2022-11-27T13:05:29.813Z,5.18
2022-11-27T13:08:01.776Z,5.10
2022-11-27T13:10:34.811Z,5.16
2022-11-27T13:13:07.207Z,5.46
2022-11-27T13:15:38.780Z,5.70
2022-11-27T13:18:14.743Z,5.94
2022-11-27T13:20:47.227Z,6.11
2022-11-27T13:23:18.767Z,6.20
2022-11-27T13:25:49.342Z,6.41
2022-11-27T13:28:23.167Z,6.59
2022-11-27T13:30:52.078Z,6.44
2022-11-27T13:33:30.162Z,6.46
2022-11-27T13:35:59.481Z,6.34
2022-11-27T13:38:27.717Z,6.40
2022-11-27T13:40:57.562Z,6.13
2022-11-27T13:43:29.575Z,6.18
2022-11-27T13:46:05.688Z,6.21
2022-11-27T13:48:35.625Z,6.15
2022-11-27T13:51:07.308Z,6.18
2022-11-27T13:53:37.447Z,6.07
2022-11-27T13:56:06.375Z,6.07
2022-11-27T13:58:35.490Z,6.25
2022-11-27T14:01:15.232Z,6.08
2022-11-27T14:03:43.192Z,5.94
2022-11-27T14:06:24.888Z,5.86
2022-11-27T14:08:58.583Z,5.77
2022-11-27T14:11:40.175Z,5.61
2022-11-27T14:14:17.127Z,5.71
2022-11-27T14:16:54.657Z,5.63
2022-11-27T14:19:33.495Z,5.59
2022-11-27T14:22:03.666Z,5.30
2022-11-27T14:24:41.300Z,5.22
2022-11-27T14:27:17.756Z,5.26
2022-11-27T14:29:46.162Z,5.09
2022-11-27T14:32:16.548Z,5.04
2022-11-27T14:34:44.663Z,4.94
2022-11-27T14:37:24.469Z,4.86
2022-11-27T14:39:52.371Z,4.82
2022-11-27T14:42:26.473Z,4.54
2022-11-27T14:45:03.773Z,4.42
2022-11-27T14:47:31.838Z,4.27
2022-11-27T14:50:00.725Z,4.07
2022-11-27T14:52:30.208Z,4.37
2022-11-27T14:54:58.688Z,4.04
2022-11-27T14:57:28.312Z,3.68
2022-11-27T15:00:05.746Z,3.61
2022-11-27T15:02:33.756Z,3.72
2022-11-27T15:05:06.274Z,3.36
2022-11-27T15:07:45.328Z,3.17
2022-11-27T15:10:33.152Z,3.21
2022-11-27T15:13:01.842Z,3.12
2022-11-27T15:15:32.999Z,2.82
2022-11-27T15:18:02.967Z,2.56
2022-11-27T15:20:37.267Z,2.64
2022-11-27T15:23:16.420Z,2.52
2022-11-27T15:25:46.330Z,2.48
2022-11-27T15:28:34.567Z,2.50
2022-11-27T15:31:03.248Z,2.13
2022-11-27T15:33:32.416Z,2.17
2022-11-27T15:36:17.727Z,1.95
2022-11-27T15:38:47.442Z,1.68
2022-11-27T15:41:25.533Z,1.97
2022-11-27T15:43:54.241Z,1.68
2022-11-27T15:46:26.248Z,1.48
2022-11-27T15:48:54.789Z,1.71
2022-11-27T15:51:22.731Z,1.56
2022-11-27T15:53:52.059Z,1.28
2022-11-27T15:56:20.774Z,1.10
2022-11-27T15:58:48.690Z,1.04
2022-11-27T16:01:16.697Z,1.32
2022-11-27T16:03:44.679Z,1.02
2022-11-27T16:06:12.658Z,0.90
2022-11-27T16:08:40.556Z,0.90
2022-11-27T16:11:13.605Z,0.78
2022-11-27T16:13:41.615Z,0.65
2022-11-27T16:16:09.967Z,0.79
2022-11-27T16:18:37.930Z,0.66
2022-11-27T16:21:07.315Z,0.47
2022-11-27T16:23:35.225Z,0.27
2022-11-27T16:26:03.147Z,0.21
2022-11-27T16:28:32.940Z,0.19
2022-11-27T16:31:02.486Z,0.10
2022-11-27T16:33:31.084Z,0.26
2022-11-27T16:36:05.882Z,0.00
2022-11-27T16:38:33.924Z,-0.14
2022-11-27T16:41:02.869Z,-0.12
2022-11-27T16:43:35.121Z,-0.28
2022-11-27T16:46:06.069Z,-0.32
2022-11-27T16:48:35.148Z,-0.43
2022-11-27T16:51:04.547Z,-0.32
2022-11-27T16:53:32.464Z,-0.45
2022-11-27T16:56:00.543Z,-0.52
2022-11-27T16:58:28.448Z,-0.62
2022-11-27T17:00:57.771Z,-0.73
2022-11-27T17:03:25.729Z,-0.68
2022-11-27T17:05:53.616Z,-0.72
2022-11-27T17:08:21.551Z,-0.93
2022-11-27T17:10:49.445Z,-0.98
2022-11-27T17:13:18.048Z,-1.06
2022-11-27T17:15:45.984Z,-1.07
2022-11-27T17:18:16.885Z,-1.14
2022-11-27T17:20:44.824Z,-0.98
2022-11-27T17:23:12.866Z,-0.78
2022-11-27T17:25:40.762Z,-0.80
2022-11-27T17:28:08.729Z,-0.84
2022-11-27T17:30:39.506Z,-0.97
2022-11-27T17:33:07.564Z,-1.19
2022-11-27T17:35:36.935Z,-1.03
2022-11-27T17:38:04.892Z,-1.13
2022-11-27T17:40:33.577Z,-1.30
2022-11-27T17:43:01.545Z,-1.40
2022-11-27T17:45:29.494Z,-1.41
2022-11-27T17:47:57.500Z,-1.37
2022-11-27T17:50:25.360Z,-1.39
2022-11-27T17:52:54.939Z,-1.35
2022-11-27T17:55:23.114Z,-1.35
2022-11-27T17:57:51.021Z,-1.46
2022-11-27T18:00:19.211Z,-1.26
2022-11-27T18:02:47.311Z,-1.36
2022-11-27T18:05:15.454Z,-1.51
2022-11-27T18:07:43.429Z,-1.46
2022-11-27T18:10:13.060Z,-1.51
2022-11-27T18:12:40.979Z,-1.66
2022-11-27T18:15:09.747Z,-1.67
2022-11-27T18:17:38.053Z,-1.67
2022-11-27T18:20:07.575Z,-1.56
2022-11-27T18:22:35.488Z,-1.50
2022-11-27T18:25:03.428Z,-1.62
2022-11-27T18:27:32.883Z,-1.61
2022-11-27T18:30:00.840Z,-1.66
2022-11-27T18:32:28.764Z,-1.72
2022-11-27T18:34:56.699Z,-1.85
2022-11-27T18:37:24.772Z,-1.84
2022-11-27T18:39:52.687Z,-1.89
2022-11-27T18:42:20.596Z,-1.39
2022-11-27T18:44:50.100Z,-1.70
2022-11-27T18:47:18.112Z,-1.62
2022-11-27T18:49:46.140Z,-1.70
2022-11-27T18:52:14.096Z,-1.95
2022-11-27T18:54:42.080Z,-1.93
2022-11-27T18:57:11.119Z,-1.98
2022-11-27T18:59:39.692Z,-2.02
2022-11-27T19:02:10.802Z,-1.92
2022-11-27T19:04:39.039Z,-1.92
2022-11-27T19:07:07.240Z,-1.91
2022-11-27T19:09:35.197Z,-1.90
2022-11-27T19:12:03.126Z,-2.06
2022-11-27T19:14:31.284Z,-2.00
2022-11-27T19:16:59.367Z,-1.97
2022-11-27T19:22:20.610Z,-2.00
2022-11-27T19:24:48.686Z,-1.74
2022-11-27T19:27:16.623Z,-1.92
2022-11-27T19:29:44.689Z,-1.95
2022-11-27T19:32:12.707Z,-2.03
2022-11-27T19:34:42.292Z,-2.09
2022-11-27T19:37:10.441Z,-2.14
2022-11-27T19:39:38.397Z,-2.20
2022-11-27T19:42:06.744Z,-2.08
2022-11-27T19:44:34.795Z,-2.01
2022-11-27T19:47:02.896Z,-2.07
2022-11-27T19:49:30.866Z,-2.03
2022-11-27T19:52:00.236Z,-2.16
2022-11-27T19:54:28.184Z,-2.25
2022-11-27T19:56:56.078Z,-2.38
2022-11-27T19:59:25.999Z,-2.30
2022-11-27T20:01:54.217Z,-2.59
2022-11-27T20:04:22.194Z,-2.65
2022-11-27T20:06:52.438Z,-2.68
2022-11-27T20:09:21.764Z,-2.55
2022-11-27T20:11:49.691Z,-2.43
2022-11-27T20:14:17.646Z,-2.37
2022-11-27T20:16:45.680Z,-2.38
2022-11-27T20:19:13.722Z,-2.38
2022-11-27T20:21:41.948Z,-2.44
2022-11-27T20:24:10.012Z,-2.58
2022-11-27T20:26:42.554Z,-2.51
2022-11-27T20:29:11.103Z,-2.61
2022-11-27T20:31:41.927Z,-2.60
2022-11-27T20:34:10.232Z,-2.62
2022-11-27T20:36:40.628Z,-2.69
2022-11-27T20:39:12.984Z,-2.82
2022-11-27T20:41:44.472Z,-2.88
2022-11-27T20:44:13.356Z,-2.85
2022-11-27T20:46:41.285Z,-2.94
2022-11-27T20:49:09.561Z,-2.98
2022-11-27T20:51:37.481Z,-3.02
2022-11-27T20:54:05.780Z,-3.08
2022-11-27T20:56:33.808Z,-3.09
2022-11-27T20:59:04.929Z,-3.05
2022-11-27T21:01:34.158Z,-3.04
2022-11-27T21:04:09.106Z,-3.00
2022-11-27T21:06:43.432Z,-3.07
2022-11-27T21:09:13.911Z,-2.97
2022-11-27T21:11:42.835Z,-3.05
2022-11-27T21:14:14.724Z,-2.91
2022-11-27T21:16:44.933Z,-3.03
2022-11-27T21:19:15.500Z,-3.18
2022-11-27T21:21:43.435Z,-3.18
2022-11-27T21:24:11.707Z,-3.19
2022-11-27T21:26:40.058Z,-3.26
2022-11-27T21:29:08.373Z,-3.32
2022-11-27T21:31:38.472Z,-3.28
2022-11-27T21:34:09.396Z,-3.25
2022-11-27T21:36:38.587Z,-3.30
2022-11-27T21:39:08.212Z,-3.28
2022-11-27T21:41:36.520Z,-3.25
2022-11-27T21:44:05.698Z,-3.12
2022-11-27T21:46:33.650Z,-3.14
2022-11-27T21:49:03.184Z,-3.18
2022-11-27T21:51:31.356Z,-3.22
2022-11-27T21:54:00.272Z,-3.25
2022-11-27T21:56:30.166Z,-3.12
2022-11-27T21:58:58.086Z,-3.20
2022-11-27T22:01:26.718Z,-3.18
2022-11-27T22:03:56.495Z,-3.06
2022-11-27T22:06:27.481Z,-3.21
2022-11-27T22:08:56.637Z,-3.24
2022-11-27T22:11:26.782Z,-3.39
2022-11-27T22:13:55.595Z,-3.29
2022-11-27T22:16:25.174Z,-3.25
2022-11-27T22:18:54.962Z,-3.38
2022-11-27T22:21:23.021Z,-3.47
2022-11-27T22:23:52.331Z,-3.26
2022-11-27T22:26:22.470Z,-3.45
2022-11-27T22:28:50.494Z,-3.59
2022-11-27T22:31:20.226Z,-3.51
2022-11-27T22:33:48.444Z,-3.46
2022-11-27T22:36:18.054Z,-3.57
2022-11-27T22:38:46.686Z,-3.58
2022-11-27T22:41:17.140Z,-3.58
2022-11-27T22:43:45.358Z,-3.65
2022-11-27T22:46:15.742Z,-3.65
2022-11-27T22:48:43.995Z,-3.61
2022-11-27T22:51:12.729Z,-3.72
2022-11-27T22:53:40.946Z,-3.71
2022-11-27T22:56:11.788Z,-3.78
2022-11-27T22:58:42.000Z,-3.41
2022-11-27T23:01:11.115Z,-3.69
2022-11-27T23:03:40.317Z,-3.60
2022-11-27T23:06:11.875Z,-3.69
2022-11-27T23:08:40.491Z,-3.56
2022-11-27T23:11:08.926Z,-3.58
2022-11-27T23:13:37.577Z,-3.68
2022-11-27T23:16:08.041Z,-3.56
2022-11-27T23:18:38.406Z,-3.46
2022-11-27T23:21:07.553Z,-3.49
2022-11-27T23:23:35.566Z,-3.60
2022-11-27T23:26:04.933Z,-3.75
2022-11-27T23:28:32.852Z,-3.58
2022-11-27T23:31:28.819Z,-3.77
2022-11-27T23:33:55.436Z,-3.84
2022-11-27T23:36:23.724Z,-3.79
2022-11-27T23:38:51.610Z,-3.82
2022-11-27T23:41:21.159Z,-3.62
2022-11-27T23:43:49.445Z,-3.61
2022-11-27T23:46:20.526Z,-3.54
2022-11-27T23:48:48.902Z,-3.65
2022-11-27T23:51:19.264Z,-3.58
2022-11-27T23:53:47.922Z,-3.67
2022-11-27T23:56:17.722Z,-3.64
2022-11-27T23:58:47.595Z,-3.66
